sensor_id;sensor_type;location;lat;lon;timestamp;pressure;altitude;pressure_sealevel;temperature;humidity
42083;BME280;27745;57.100;-2.920;2022-08-01T00:00:09;70533.88;;;10.39;nan
42083;BME280;27745;57.100;-2.920;2022-08-01T00:02:35;70542.75;;;10.27;nan
42083;BME280;27745;57.100;-2.920;2022-08-01T00:07:30;70554.53;;;10.10;nan
42083;BME280;27745;57.100;-2.920;2022-08-01T00:09:56;70548.53;;;10.14;nan
42083;BME280;27745;57.100;-2.920;2022-08-01T00:12:21;70551.59;;;10.15;nan
42083;BME280;27745;57.100;-2.920;2022-08-01T00:14:47;70547.09;;;10.18;nan
42083;BME280;27745;57.100;-2.920;2022-08-01T00:17:12;70557.38;;;10.01;nan
42083;BME280;27745;57.100;-2.920;2022-08-01T00:19:37;70551.47;;;10.09;nan
42083;BME280;27745;57.100;-2.920;2022-08-01T00:22:03;70557.56;;;10.08;nan
42083;BME280;27745;57.100;-2.920;2022-08-01T00:24:28;70545.34;;;10.09;nan
42083;BME280;27745;57.100;-2.920;2022-08-01T00:26:54;70551.47;;;10.09;nan
42083;BME280;27745;57.100;-2.920;2022-08-01T00:29:19;70552.78;;;10.01;nan
42083;BME280;27745;57.100;-2.920;2022-08-01T00:31:45;70557.19;;;9.94;nan
42083;BME280;27745;57.100;-2.920;2022-08-01T00:34:10;70557.09;;;9.89;nan
42083;BME280;27745;57.100;-2.920;2022-08-01T00:36:36;70557.19;;;9.93;nan
42083;BME280;27745;57.100;-2.920;2022-08-01T00:39:01;70566.28;;;9.91;nan
42083;BME280;27745;57.100;-2.920;2022-08-01T00:41:27;70572.22;;;9.84;nan
42083;BME280;27745;57.100;-2.920;2022-08-01T00:43:52;70574.94;;;9.70;nan
42083;BME280;27745;57.100;-2.920;2022-08-01T00:46:18;70595.78;;;9.50;nan
42083;BME280;27745;57.100;-2.920;2022-08-01T00:48:43;70607.66;;;9.36;nan
42083;BME280;27745;57.100;-2.920;2022-08-01T00:51:09;70623.94;;;9.15;nan
42083;BME280;27745;57.100;-2.920;2022-08-01T00:53:35;70637.72;;;9.17;nan
42083;BME280;27745;57.100;-2.920;2022-08-01T00:56:01;70633.13;;;9.16;nan
42083;BME280;27745;57.100;-2.920;2022-08-01T00:58:26;70637.59;;;9.12;nan
42083;BME280;27745;57.100;-2.920;2022-08-01T01:00:54;70642.06;;;9.08;nan
42083;BME280;27745;57.100;-2.920;2022-08-01T01:03:21;70633.06;;;9.13;nan
42083;BME280;27745;57.100;-2.920;2022-08-01T01:08:38;70629.94;;;9.11;nan
42083;BME280;27745;57.100;-2.920;2022-08-01T01:11:13;70644.88;;;8.97;nan
42083;BME280;27745;57.100;-2.920;2022-08-01T01:13:49;70646.25;;;8.91;nan
42083;BME280;27745;57.100;-2.920;2022-08-01T01:16:18;70652.19;;;8.85;nan
42083;BME280;27745;57.100;-2.920;2022-08-01T01:18:53;70627.69;;;8.82;nan
42083;BME280;27745;57.100;-2.920;2022-08-01T01:23:54;70666.84;;;8.60;nan
42083;BME280;27745;57.100;-2.920;2022-08-01T01:26:50;70660.81;;;8.63;nan
42083;BME280;27745;57.100;-2.920;2022-08-01T01:29:27;70657.91;;;8.69;nan
42083;BME280;27745;57.100;-2.920;2022-08-01T01:34:40;70648.72;;;8.68;nan
42083;BME280;27745;57.100;-2.920;2022-08-01T01:37:12;70678.72;;;8.47;nan
42083;BME280;27745;57.100;-2.920;2022-08-01T01:39:40;70702.78;;;8.31;nan
42083;BME280;27745;57.100;-2.920;2022-08-01T01:42:07;70693.72;;;8.35;nan
42083;BME280;27745;57.100;-2.920;2022-08-01T01:44:33;70687.75;;;8.42;nan
42083;BME280;27745;57.100;-2.920;2022-08-01T01:47:00;70699.81;;;8.34;nan
42083;BME280;27745;57.100;-2.920;2022-08-01T01:49:27;70692.28;;;8.39;nan
42083;BME280;27745;57.100;-2.920;2022-08-01T01:51:56;70695.34;;;8.39;nan
42083;BME280;27745;57.100;-2.920;2022-08-01T01:54:24;70701.09;;;8.25;nan
42083;BME280;27745;57.100;-2.920;2022-08-01T01:56:55;70699.50;;;8.23;nan
42083;BME280;27745;57.100;-2.920;2022-08-01T01:59:27;70692.06;;;8.31;nan
42083;BME280;27745;57.100;-2.920;2022-08-01T02:01:55;70687.94;;;8.48;nan
42083;BME280;27745;57.100;-2.920;2022-08-01T02:04:23;70672.81;;;8.54;nan
42083;BME280;27745;57.100;-2.920;2022-08-01T02:06:50;70660.78;;;8.62;nan
42083;BME280;27745;57.100;-2.920;2022-08-01T02:09:19;70681.78;;;8.46;nan
42083;BME280;27745;57.100;-2.920;2022-08-01T02:11:46;70672.66;;;8.48;nan
42083;BME280;27745;57.100;-2.920;2022-08-01T02:14:13;70675.63;;;8.45;nan
42083;BME280;27745;57.100;-2.920;2022-08-01T02:16:40;70696.69;;;8.32;nan
42083;BME280;27745;57.100;-2.920;2022-08-01T02:19:07;70675.59;;;8.43;nan
42083;BME280;27745;57.100;-2.920;2022-08-01T02:24:12;70660.81;;;8.63;nan
42083;BME280;27745;57.100;-2.920;2022-08-01T02:26:42;70657.72;;;8.61;nan
42083;BME280;27745;57.100;-2.920;2022-08-01T02:29:13;70650.28;;;8.69;nan
42083;BME280;27745;57.100;-2.920;2022-08-01T02:31:41;70648.91;;;8.76;nan
42083;BME280;27745;57.100;-2.920;2022-08-01T02:34:13;70635.22;;;8.77;nan
42083;BME280;27745;57.100;-2.920;2022-08-01T02:36:43;70632.22;;;8.79;nan
42083;BME280;27745;57.100;-2.920;2022-08-01T02:39:13;70642.63;;;8.69;nan
42083;BME280;27745;57.100;-2.920;2022-08-01T02:41:47;70663.44;;;8.45;nan
42083;BME280;27745;57.100;-2.920;2022-08-01T02:44:23;70658.91;;;8.47;nan
42083;BME280;27745;57.100;-2.920;2022-08-01T02:46:52;70661.88;;;8.45;nan
42083;BME280;27745;57.100;-2.920;2022-08-01T02:49:22;70666.28;;;8.36;nan
42083;BME280;27745;57.100;-2.920;2022-08-01T02:51:50;70663.31;;;8.41;nan
42083;BME280;27745;57.100;-2.920;2022-08-01T02:54:18;70669.22;;;8.32;nan
42083;BME280;27745;57.100;-2.920;2022-08-01T02:56:47;70672.31;;;8.34;nan
42083;BME280;27745;57.100;-2.920;2022-08-01T02:59:16;70678.31;;;8.30;nan
42083;BME280;27745;57.100;-2.920;2022-08-01T03:01:44;70681.31;;;8.27;nan
42083;BME280;27745;57.100;-2.920;2022-08-01T03:04:10;70696.16;;;8.11;nan
42083;BME280;27745;57.100;-2.920;2022-08-01T03:06:37;70687.03;;;8.11;nan
42083;BME280;27745;57.100;-2.920;2022-08-01T03:09:03;70679.41;;;8.12;nan
42083;BME280;27745;57.100;-2.920;2022-08-01T03:11:30;70695.91;;;8.00;nan
42083;BME280;27745;57.100;-2.920;2022-08-01T03:13:59;70701.69;;;7.87;nan
42083;BME280;27745;57.100;-2.920;2022-08-01T03:16:26;70698.72;;;7.91;nan
42083;BME280;27745;57.100;-2.920;2022-08-01T03:18:54;70709.41;;;7.90;nan
42083;BME280;27745;57.100;-2.920;2022-08-01T03:21:22;70701.66;;;7.86;nan
42083;BME280;27745;57.100;-2.920;2022-08-01T03:23:50;70707.66;;;7.81;nan
42083;BME280;27745;57.100;-2.920;2022-08-01T03:26:17;70722.72;;;7.73;nan
42083;BME280;27745;57.100;-2.920;2022-08-01T03:28:46;70720.91;;;7.62;nan
42083;BME280;27745;57.100;-2.920;2022-08-01T03:31:14;70710.53;;;7.74;nan
42083;BME280;27745;57.100;-2.920;2022-08-01T03:33:39;70722.22;;;7.53;nan
42083;BME280;27745;57.100;-2.920;2022-08-01T03:36:09;70691.56;;;7.48;nan
42083;BME280;27745;57.100;-2.920;2022-08-01T03:38:37;70731.22;;;7.46;nan
42083;BME280;27745;57.100;-2.920;2022-08-01T03:41:09;70746.41;;;7.43;nan
42083;BME280;27745;57.100;-2.920;2022-08-01T03:43:47;70761.22;;;7.25;nan
42083;BME280;27745;57.100;-2.920;2022-08-01T03:46:19;70767.03;;;7.13;nan
42083;BME280;27745;57.100;-2.920;2022-08-01T03:48:48;70763.94;;;7.11;nan
42083;BME280;27745;57.100;-2.920;2022-08-01T03:51:16;70755.06;;;7.22;nan
42083;BME280;27745;57.100;-2.920;2022-08-01T03:53:44;70765.69;;;7.20;nan
42083;BME280;27745;57.100;-2.920;2022-08-01T03:56:13;70762.50;;;7.15;nan
42083;BME280;27745;57.100;-2.920;2022-08-01T03:58:40;70770.00;;;7.09;nan
42083;BME280;27745;57.100;-2.920;2022-08-01T04:01:07;70775.94;;;7.02;nan
42083;BME280;27745;57.100;-2.920;2022-08-01T04:03:34;70792.25;;;6.83;nan
42083;BME280;27745;57.100;-2.920;2022-08-01T04:06:04;70787.94;;;6.93;nan
42083;BME280;27745;57.100;-2.920;2022-08-01T04:08:37;70796.84;;;6.83;nan
42083;BME280;27745;57.100;-2.920;2022-08-01T04:11:03;70801.38;;;6.81;nan
42083;BME280;27745;57.100;-2.920;2022-08-01T04:13:30;70807.31;;;6.74;nan
42083;BME280;27745;57.100;-2.920;2022-08-01T04:15:55;70814.72;;;6.64;nan
42083;BME280;27745;57.100;-2.920;2022-08-01T04:18:21;70808.75;;;6.71;nan
42083;BME280;27745;57.100;-2.920;2022-08-01T04:20:47;70817.72;;;6.62;nan
42083;BME280;27745;57.100;-2.920;2022-08-01T04:23:15;70810.22;;;6.68;nan
42083;BME280;27745;57.100;-2.920;2022-08-01T04:25:44;70799.69;;;6.75;nan
42083;BME280;27745;57.100;-2.920;2022-08-01T04:28:13;70804.38;;;6.78;nan
42083;BME280;27745;57.100;-2.920;2022-08-01T04:30:42;70789.34;;;6.88;nan
42083;BME280;27745;57.100;-2.920;2022-08-01T04:33:12;70810.25;;;6.69;nan
42083;BME280;27745;57.100;-2.920;2022-08-01T04:35:43;70796.53;;;6.71;nan
42083;BME280;27745;57.100;-2.920;2022-08-01T04:38:12;70804.03;;;6.64;nan
42083;BME280;27745;57.100;-2.920;2022-08-01T04:40:41;70802.56;;;6.67;nan
42083;BME280;27745;57.100;-2.920;2022-08-01T04:43:07;70799.56;;;6.70;nan
42083;BME280;27745;57.100;-2.920;2022-08-01T04:45:34;70811.44;;;6.55;nan
42083;BME280;27745;57.100;-2.920;2022-08-01T04:48:00;70805.34;;;6.56;nan
42083;BME280;27745;57.100;-2.920;2022-08-01T04:50:27;70814.31;;;6.48;nan
42083;BME280;27745;57.100;-2.920;2022-08-01T04:52:53;70829.22;;;6.33;nan
42083;BME280;27745;57.100;-2.920;2022-08-01T04:55:18;70835.22;;;6.28;nan
42083;BME280;27745;57.100;-2.920;2022-08-01T04:57:46;70830.81;;;6.36;nan
42083;BME280;27745;57.100;-2.920;2022-08-01T05:00:12;70830.72;;;6.32;nan
42083;BME280;27745;57.100;-2.920;2022-08-01T05:02:38;70818.81;;;6.44;nan
42083;BME280;27745;57.100;-2.920;2022-08-01T05:05:03;70824.81;;;6.41;nan
42083;BME280;27745;57.100;-2.920;2022-08-01T05:07:32;70812.88;;;6.51;nan
42083;BME280;27745;57.100;-2.920;2022-08-01T05:09:58;70809.94;;;6.56;nan
42083;BME280;27745;57.100;-2.920;2022-08-01T05:12:23;70797.81;;;6.59;nan
42083;BME280;27745;57.100;-2.920;2022-08-01T05:14:49;70802.38;;;6.59;nan
42083;BME280;27745;57.100;-2.920;2022-08-01T05:17:14;70791.88;;;6.66;nan
42083;BME280;27745;57.100;-2.920;2022-08-01T05:19:39;70788.91;;;6.71;nan
42083;BME280;27745;57.100;-2.920;2022-08-01T05:22:07;70796.44;;;6.66;nan
42083;BME280;27745;57.100;-2.920;2022-08-01T05:24:34;70787.44;;;6.73;nan
42083;BME280;27745;57.100;-2.920;2022-08-01T05:27:00;70796.47;;;6.67;nan
42083;BME280;27745;57.100;-2.920;2022-08-01T05:29:27;70824.75;;;6.38;nan
42083;BME280;27745;57.100;-2.920;2022-08-01T05:31:53;70829.28;;;6.36;nan
42083;BME280;27745;57.100;-2.920;2022-08-01T05:34:20;70809.88;;;6.54;nan
42083;BME280;27745;57.100;-2.920;2022-08-01T05:36:46;70791.91;;;6.69;nan
42083;BME280;27745;57.100;-2.920;2022-08-01T05:39:12;70793.44;;;6.68;nan
42083;BME280;27745;57.100;-2.920;2022-08-01T05:41:38;70794.94;;;6.67;nan
42083;BME280;27745;57.100;-2.920;2022-08-01T05:44:04;70789.03;;;6.76;nan
42083;BME280;27745;57.100;-2.920;2022-08-01T05:46:30;70777.00;;;6.83;nan
42083;BME280;27745;57.100;-2.920;2022-08-01T05:48:57;70769.59;;;6.92;nan
42083;BME280;27745;57.100;-2.920;2022-08-01T05:51:23;70775.91;;;7.00;nan
42083;BME280;27745;57.100;-2.920;2022-08-01T05:53:48;70754.78;;;7.11;nan
42083;BME280;27745;57.100;-2.920;2022-08-01T05:56:14;70754.84;;;7.13;nan
42083;BME280;27745;57.100;-2.920;2022-08-01T05:58:39;70745.84;;;7.19;nan
42083;BME280;27745;57.100;-2.920;2022-08-01T06:01:05;70739.91;;;7.27;nan
42083;BME280;27745;57.100;-2.920;2022-08-01T06:03:30;70730.91;;;7.33;nan
42083;BME280;27745;57.100;-2.920;2022-08-01T06:05:58;70723.56;;;7.45;nan
42083;BME280;27745;57.100;-2.920;2022-08-01T06:08:24;70722.16;;;7.50;nan
42083;BME280;27745;57.100;-2.920;2022-08-01T06:10:50;70711.66;;;7.58;nan
42083;BME280;27745;57.100;-2.920;2022-08-01T06:13:15;70705.75;;;7.66;nan
42083;BME280;27745;57.100;-2.920;2022-08-01T06:15:41;70701.34;;;7.72;nan
42083;BME280;27745;57.100;-2.920;2022-08-01T06:18:07;70698.41;;;7.77;nan
42083;BME280;27745;57.100;-2.920;2022-08-01T06:20:32;70701.66;;;7.86;nan
42083;BME280;27745;57.100;-2.920;2022-08-01T06:22:58;70677.47;;;7.96;nan
42083;BME280;27745;57.100;-2.920;2022-08-01T06:25:23;70674.59;;;8.03;nan
42083;BME280;27745;57.100;-2.920;2022-08-01T06:27:49;70661.06;;;8.11;nan
42083;BME280;27745;57.100;-2.920;2022-08-01T06:30:15;70656.72;;;8.21;nan
42083;BME280;27745;57.100;-2.920;2022-08-01T06:32:40;70647.81;;;8.30;nan
42083;BME280;27745;57.100;-2.920;2022-08-01T06:35:06;70635.78;;;8.38;nan
42083;BME280;27745;57.100;-2.920;2022-08-01T06:37:32;70626.88;;;8.48;nan
42083;BME280;27745;57.100;-2.920;2022-08-01T06:40:05;70614.91;;;8.58;nan
42083;BME280;27745;57.100;-2.920;2022-08-01T06:42:31;70609.00;;;8.67;nan
42083;BME280;27745;57.100;-2.920;2022-08-01T06:45:07;70603.06;;;8.73;nan
42083;BME280;27745;57.100;-2.920;2022-08-01T06:47:32;70591.13;;;8.85;nan
42083;BME280;27745;57.100;-2.920;2022-08-01T06:49:58;70580.72;;;8.96;nan
42083;BME280;27745;57.100;-2.920;2022-08-01T06:52:24;70576.38;;;9.06;nan
42083;BME280;27745;57.100;-2.920;2022-08-01T06:54:50;70565.97;;;9.17;nan
42083;BME280;27745;57.100;-2.920;2022-08-01T06:57:15;70549.50;;;9.29;nan
42083;BME280;27745;57.100;-2.920;2022-08-01T06:59:40;70543.69;;;9.42;nan
42083;BME280;27745;57.100;-2.920;2022-08-01T07:02:06;70534.84;;;9.55;nan
42083;BME280;27745;57.100;-2.920;2022-08-01T07:04:33;70519.91;;;9.67;nan
42083;BME280;27745;57.100;-2.920;2022-08-01T07:06:59;70505.03;;;9.84;nan
42083;BME280;27745;57.100;-2.920;2022-08-01T07:09:25;70488.72;;;10.03;nan
42083;BME280;27745;57.100;-2.920;2022-08-01T07:11:51;70470.88;;;10.21;nan
42083;BME280;27745;57.100;-2.920;2022-08-01T07:14:18;70448.50;;;10.43;nan
42083;BME280;27745;57.100;-2.920;2022-08-01T07:16:44;70427.59;;;10.62;nan
42083;BME280;27745;57.100;-2.920;2022-08-01T07:19:09;70405.19;;;10.81;nan
42083;BME280;27745;57.100;-2.920;2022-08-01T07:21:35;70390.31;;;10.97;nan
42083;BME280;27745;57.100;-2.920;2022-08-01T07:24:00;70373.94;;;11.14;nan
42083;BME280;27745;57.100;-2.920;2022-08-01T07:26:26;70359.09;;;11.30;nan
42083;BME280;27745;57.100;-2.920;2022-08-01T07:28:52;70350.22;;;11.41;nan
42083;BME280;27745;57.100;-2.920;2022-08-01T07:31:18;70338.16;;;11.47;nan
42083;BME280;27745;57.100;-2.920;2022-08-01T07:33:44;70323.13;;;11.56;nan
42083;BME280;27745;57.100;-2.920;2022-08-01T07:36:10;70320.19;;;-143.83;nan
42083;BME280;27745;57.100;-2.920;2022-08-01T07:38:35;70305.00;;;11.65;nan
42083;BME280;27745;57.100;-2.920;2022-08-01T07:41:00;70300.56;;;11.70;nan
42083;BME280;27745;57.100;-2.920;2022-08-01T07:43:26;70288.53;;;11.78;nan
42083;BME280;27745;57.100;-2.920;2022-08-01T07:45:51;70282.53;;;11.82;nan
42083;BME280;27745;57.100;-2.920;2022-08-01T07:48:17;70284.31;;;-143.83;nan
42083;BME280;27745;57.100;-2.920;2022-08-01T07:50:43;70261.59;;;11.98;nan
42083;BME280;27745;57.100;-2.920;2022-08-01T07:53:09;70258.72;;;12.07;nan
42083;BME280;27745;57.100;-2.920;2022-08-01T07:55:35;70257.50;;;12.18;nan
42083;BME280;27745;57.100;-2.920;2022-08-01T07:58:01;70236.34;;;12.27;nan
42083;BME280;27745;57.100;-2.920;2022-08-01T08:00:26;70227.44;;;12.36;nan
42083;BME280;27745;57.100;-2.920;2022-08-01T08:02:53;70215.53;;;12.49;nan
42083;BME280;27745;57.100;-2.920;2022-08-01T08:05:19;70211.19;;;12.58;nan
42083;BME280;27745;57.100;-2.920;2022-08-01T08:07:45;70203.75;;;12.66;nan
42083;BME280;27745;57.100;-2.920;2022-08-01T08:10:10;70188.75;;;12.76;nan
42083;BME280;27745;57.100;-2.920;2022-08-01T08:12:36;70182.91;;;12.87;nan
42083;BME280;27745;57.100;-2.920;2022-08-01T08:15:02;70169.41;;;12.96;nan
42083;BME280;27745;57.100;-2.920;2022-08-01T08:17:30;70152.88;;;13.07;nan
42083;BME280;27745;57.100;-2.920;2022-08-01T08:19:57;70136.56;;;13.26;nan
42083;BME280;27745;57.100;-2.920;2022-08-01T08:22:22;-68840.44;;;-143.83;nan
42083;BME280;27745;57.100;-2.920;2022-08-01T08:24:48;-69135.81;;;-143.83;nan
42083;BME280;27745;57.100;-2.920;2022-08-01T08:27:14;70087.28;;;13.68;nan
42083;BME280;27745;57.100;-2.920;2022-08-01T08:29:40;70057.31;;;13.91;nan
42083;BME280;27745;57.100;-2.920;2022-08-01T08:32:06;70044.00;;;14.08;nan
42083;BME280;27745;57.100;-2.920;2022-08-01T08:34:31;70038.22;;;14.20;nan
42083;BME280;27745;57.100;-2.920;2022-08-01T08:36:57;70011.16;;;14.37;nan
42083;BME280;27745;57.100;-2.920;2022-08-01T08:39:24;70007.00;;;14.54;nan
42083;BME280;27745;57.100;-2.920;2022-08-01T08:41:49;69986.16;;;14.74;nan
42083;BME280;27745;57.100;-2.920;2022-08-01T08:44:15;69980.06;;;14.74;nan
42083;BME280;27745;57.100;-2.920;2022-08-01T08:46:46;69968.16;;;14.87;nan
42083;BME280;27745;57.100;-2.920;2022-08-01T08:49:16;69962.00;;;14.85;nan
42083;BME280;27745;57.100;-2.920;2022-08-01T08:51:42;69959.06;;;14.90;nan
42083;BME280;27745;57.100;-2.920;2022-08-01T08:54:11;69948.97;;;15.13;nan
42083;BME280;27745;57.100;-2.920;2022-08-01T08:56:38;69917.25;;;15.26;nan
42083;BME280;27745;57.100;-2.920;2022-08-01T08:59:04;69896.59;;;15.53;nan
42083;BME280;27745;57.100;-2.920;2022-08-01T09:01:31;69863.97;;;15.90;nan
42083;BME280;27745;57.100;-2.920;2022-08-01T09:03:59;69840.38;;;16.23;nan
42083;BME280;27745;57.100;-2.920;2022-08-01T09:06:24;69813.41;;;16.43;nan
42083;BME280;27745;57.100;-2.920;2022-08-01T09:08:50;69792.75;;;16.70;nan
42083;BME280;27745;57.100;-2.920;2022-08-01T09:11:16;69801.94;;;16.71;nan
42083;BME280;27745;57.100;-2.920;2022-08-01T09:13:41;69762.88;;;16.96;nan
42083;BME280;27745;57.100;-2.920;2022-08-01T09:16:07;69737.53;;;17.20;nan
42083;BME280;27745;57.100;-2.920;2022-08-01T09:18:37;69736.25;;;17.28;nan
42083;BME280;27745;57.100;-2.920;2022-08-01T09:23:39;69730.13;;;17.28;nan
42083;BME280;27745;57.100;-2.920;2022-08-01T09:26:10;69728.63;;;17.29;nan
42083;BME280;27745;57.100;-2.920;2022-08-01T09:28:36;69739.31;;;17.29;nan
42083;BME280;27745;57.100;-2.920;2022-08-01T09:31:19;69682.66;;;17.81;nan
42083;BME280;27745;57.100;-2.920;2022-08-01T09:36:25;69656.03;;;18.14;nan
42083;BME280;27745;57.100;-2.920;2022-08-01T09:38:53;69645.59;;;18.23;nan
42083;BME280;27745;57.100;-2.920;2022-08-01T09:41:31;69629.13;;;18.36;nan
42083;BME280;27745;57.100;-2.920;2022-08-01T09:43:57;69623.50;;;18.55;nan
42083;BME280;27745;57.100;-2.920;2022-08-01T09:46:24;69587.75;;;18.88;nan
42083;BME280;27745;57.100;-2.920;2022-08-01T09:51:42;69522.28;;;19.53;nan
42083;BME280;27745;57.100;-2.920;2022-08-01T09:54:07;69510.56;;;19.72;nan
42083;BME280;27745;57.100;-2.920;2022-08-01T09:56:38;69510.53;;;19.71;nan
42083;BME280;27745;57.100;-2.920;2022-08-01T09:59:04;69498.81;;;19.89;nan
42083;BME280;27745;57.100;-2.920;2022-08-01T10:01:45;69470.34;;;20.09;nan
42083;BME280;27745;57.100;-2.920;2022-08-01T10:04:18;69460.13;;;20.28;nan
42083;BME280;27745;57.100;-2.920;2022-08-01T10:06:46;69439.28;;;20.48;nan
42083;BME280;27745;57.100;-2.920;2022-08-01T10:09:15;69436.25;;;20.48;nan
42083;BME280;27745;57.100;-2.920;2022-08-01T10:11:49;69357.63;;;21.35;nan
42083;BME280;27745;57.100;-2.920;2022-08-01T10:14:14;69323.34;;;21.66;nan
42083;BME280;27745;57.100;-2.920;2022-08-01T10:16:40;69320.44;;;21.71;nan
42083;BME280;27745;57.100;-2.920;2022-08-01T10:19:07;69267.03;;;22.29;nan
42083;BME280;27745;57.100;-2.920;2022-08-01T10:21:33;69249.34;;;22.52;nan
42083;BME280;27745;57.100;-2.920;2022-08-01T10:24:02;69207.66;;;22.92;nan
42083;BME280;27745;57.100;-2.920;2022-08-01T10:26:32;-68056.63;;;-143.83;nan
42083;BME280;27745;57.100;-2.920;2022-08-01T10:28:58;-68056.63;;;-143.83;nan
42083;BME280;27745;57.100;-2.920;2022-08-01T10:31:24;-68191.25;;;-143.83;nan
42083;BME280;27745;57.100;-2.920;2022-08-01T10:33:51;-68056.63;;;-143.83;nan
42083;BME280;27745;57.100;-2.920;2022-08-01T10:36:19;-68056.63;;;-143.83;nan
42083;BME280;27745;57.100;-2.920;2022-08-01T10:38:46;-68056.63;;;-143.83;nan
42083;BME280;27745;57.100;-2.920;2022-08-01T10:41:12;-59103.53;;;-143.83;0.00
42083;BME280;27745;57.100;-2.920;2022-08-01T10:43:41;68972.44;;;-143.83;nan
42083;BME280;27745;57.100;-2.920;2022-08-01T10:46:07;-68056.63;;;-143.83;nan
42083;BME280;27745;57.100;-2.920;2022-08-01T10:48:57;69026.53;;;24.82;nan
42083;BME280;27745;57.100;-2.920;2022-08-01T10:51:24;69062.19;;;24.46;nan
42083;BME280;27745;57.100;-2.920;2022-08-01T10:53:53;69028.28;;;24.90;nan
42083;BME280;27745;57.100;-2.920;2022-08-01T10:56:23;68988.44;;;-143.83;nan
42083;BME280;27745;57.100;-2.920;2022-08-01T10:59:00;-67941.72;;;-143.83;nan
42083;BME280;27745;57.100;-2.920;2022-08-01T11:01:29;-67664.72;;;-143.83;nan
42083;BME280;27745;57.100;-2.920;2022-08-01T11:09:00;-67664.72;;;-143.83;nan
42083;BME280;27745;57.100;-2.920;2022-08-01T11:11:26;-67664.72;;;-143.83;nan
42083;BME280;27745;57.100;-2.920;2022-08-01T11:14:03;-67664.72;;;-143.83;nan
42083;BME280;27745;57.100;-2.920;2022-08-01T11:16:34;-67664.72;;;-143.83;nan
42083;BME280;27745;57.100;-2.920;2022-08-01T11:19:02;-67664.72;;;-143.83;nan
42083;BME280;27745;57.100;-2.920;2022-08-01T11:27:35;-59103.53;;;-143.83;0.00
42083;BME280;27745;57.100;-2.920;2022-08-01T11:35:16;-67664.72;;;-143.83;nan
42083;BME280;27745;57.100;-2.920;2022-08-01T11:37:42;-67712.06;;;-143.83;nan
42083;BME280;27745;57.100;-2.920;2022-08-01T11:42:41;-67664.72;;;-143.83;nan
42083;BME280;27745;57.100;-2.920;2022-08-01T11:45:07;68756.38;;;27.64;nan
42083;BME280;27745;57.100;-2.920;2022-08-01T11:47:46;68743.00;;;27.76;nan
42083;BME280;27745;57.100;-2.920;2022-08-01T11:50:36;68722.34;;;28.02;nan
42083;BME280;27745;57.100;-2.920;2022-08-01T11:53:07;68765.22;;;27.51;nan
42083;BME280;27745;57.100;-2.920;2022-08-01T11:55:33;68648.13;;;28.79;nan
42083;BME280;27745;57.100;-2.920;2022-08-01T11:58:05;68634.81;;;28.94;nan
42083;BME280;27745;57.100;-2.920;2022-08-01T12:00:31;68643.81;;;28.89;nan
42083;BME280;27745;57.100;-2.920;2022-08-01T12:03:00;68630.41;;;29.00;nan
42083;BME280;27745;57.100;-2.920;2022-08-01T12:05:26;68576.84;;;29.51;nan
42083;BME280;27745;57.100;-2.920;2022-08-01T12:07:53;68585.84;;;29.45;nan
42083;BME280;27745;57.100;-2.920;2022-08-01T12:10:22;68562.16;;;29.71;nan
42083;BME280;27745;57.100;-2.920;2022-08-01T12:12:53;68539.78;;;29.91;nan
42083;BME280;27745;57.100;-2.920;2022-08-01T12:15:21;68548.66;;;29.80;nan
42083;BME280;27745;57.100;-2.920;2022-08-01T12:17:50;68573.66;;;29.46;nan
42083;BME280;27745;57.100;-2.920;2022-08-01T12:20:19;68579.66;;;29.42;nan
42083;BME280;27745;57.100;-2.920;2022-08-01T12:22:46;68529.38;;;30.01;nan
42083;BME280;27745;57.100;-2.920;2022-08-01T12:25:16;68560.19;;;29.56;nan
42083;BME280;27745;57.100;-2.920;2022-08-01T12:27:43;68502.56;;;30.25;nan
42083;BME280;27745;57.100;-2.920;2022-08-01T12:30:12;68595.81;;;29.19;nan
42083;BME280;27745;57.100;-2.920;2022-08-01T12:32:39;68564.81;;;29.58;nan
42083;BME280;27745;57.100;-2.920;2022-08-01T12:35:10;68526.16;;;29.95;nan
42083;BME280;27745;57.100;-2.920;2022-08-01T12:37:44;68478.84;;;30.49;nan
42083;BME280;27745;57.100;-2.920;2022-08-01T12:42:40;68450.50;;;30.74;nan
42083;BME280;27745;57.100;-2.920;2022-08-01T12:45:08;68438.75;;;30.90;nan
42083;BME280;27745;57.100;-2.920;2022-08-01T12:47:36;68468.31;;;30.55;nan
42083;BME280;27745;57.100;-2.920;2022-08-01T12:50:03;68440.28;;;30.90;nan
42083;BME280;27745;57.100;-2.920;2022-08-01T12:52:31;68553.84;;;29.48;nan
42083;BME280;27745;57.100;-2.920;2022-08-01T12:57:36;68473.97;;;30.39;nan
42083;BME280;27745;57.100;-2.920;2022-08-01T13:00:28;68430.97;;;30.85;nan
42083;BME280;27745;57.100;-2.920;2022-08-01T13:03:06;68414.69;;;31.04;nan
42083;BME280;27745;57.100;-2.920;2022-08-01T13:08:18;68396.88;;;31.22;nan
42083;BME280;27745;57.100;-2.920;2022-08-01T13:10:44;68382.09;;;31.39;nan
42083;BME280;27745;57.100;-2.920;2022-08-01T13:13:11;68418.94;;;30.91;nan
42083;BME280;27745;57.100;-2.920;2022-08-01T13:15:38;68447.03;;;30.59;nan
42083;BME280;27745;57.100;-2.920;2022-08-01T13:18:27;68457.19;;;30.40;nan
42083;BME280;27745;57.100;-2.920;2022-08-01T13:21:22;68442.38;;;30.57;nan
42083;BME280;27745;57.100;-2.920;2022-08-01T13:24:12;68473.38;;;30.18;nan
42083;BME280;27745;57.100;-2.920;2022-08-01T13:26:47;68510.22;;;29.72;nan
42083;BME280;27745;57.100;-2.920;2022-08-01T13:29:42;68383.09;;;31.20;nan
42083;BME280;27745;57.100;-2.920;2022-08-01T13:32:27;68449.75;;;30.47;nan
42083;BME280;27745;57.100;-2.920;2022-08-01T13:35:01;68363.81;;;31.41;nan
42083;BME280;27745;57.100;-2.920;2022-08-01T13:37:26;68393.28;;;31.03;nan
42083;BME280;27745;57.100;-2.920;2022-08-01T13:39:52;68366.50;;;31.27;nan
42083;BME280;27745;57.100;-2.920;2022-08-01T13:42:17;68402.00;;;30.87;nan
42083;BME280;27745;57.100;-2.920;2022-08-01T13:44:43;68384.28;;;31.08;nan
42083;BME280;27745;57.100;-2.920;2022-08-01T13:47:10;68301.47;;;32.03;nan
42083;BME280;27745;57.100;-2.920;2022-08-01T13:49:36;68419.59;;;30.62;nan
42083;BME280;27745;57.100;-2.920;2022-08-01T13:52:02;68289.81;;;32.23;nan
42083;BME280;27745;57.100;-2.920;2022-08-01T13:54:28;68279.38;;;32.32;nan
42083;BME280;27745;57.100;-2.920;2022-08-01T13:56:54;68298.50;;;32.06;nan
42083;BME280;27745;57.100;-2.920;2022-08-01T13:59:20;68317.69;;;31.83;nan
42083;BME280;27745;57.100;-2.920;2022-08-01T14:01:46;68299.91;;;32.02;nan
42083;BME280;27745;57.100;-2.920;2022-08-01T14:04:12;68330.88;;;31.63;nan
42083;BME280;27745;57.100;-2.920;2022-08-01T14:06:38;68313.09;;;31.82;nan